Rechercher aéroport 
image banner adimage banner adimage banner ad
image banner ad

45CL - Hell'er High Water

Situé à Zenia, United States

ICAO - 45CL, IATA -

Données fournies par Airmate  

Information générale

Coordonnées: N40°8'36" W123°23'54"
Élévation : 2493 feet MSL.
Variation magnétique : 17° East
Voir autres Aéroports à California

Données opérationnelles

Special qualification required
Heure actuelle UTC:
Heure actuelle locale:
Météo à : KFOT - Rohnerville ( 77 km )
METAR: KFOT 020635Z AUTO 00000KT 10SM OVC003 11/11 A3009 RMK AO1
Voir NOTAMs / SUP AIP / TFR affectant cet aéroport [VIEW]
Fréquences de communication: [VIEW]

Pistes:

Identifiant RWYQFULongueur (ft)Largeur (ft)SurfaceLDA (ft)
18260050EARTH
36260050EARTH

Coordonnées de l'aéroport

Adresse: Zenia United States

Vue satellite de 45CL